sensor_id;sensor_type;location;lat;lon;timestamp;pressure;altitude;pressure_sealevel;temperature;humidity
4586;BME280;2305;50.118;8.952;2023-04-23T00:01:55;99837.34;;;14.63;100.00
4586;BME280;2305;50.118;8.952;2023-04-23T00:04:27;99835.66;;;14.62;100.00
4586;BME280;2305;50.118;8.952;2023-04-23T00:06:57;99839.66;;;14.58;100.00
4586;BME280;2305;50.118;8.952;2023-04-23T00:09:30;99843.94;;;14.51;100.00
4586;BME280;2305;50.118;8.952;2023-04-23T00:11:59;99841.31;;;14.59;100.00
4586;BME280;2305;50.118;8.952;2023-04-23T00:14:28;99832.84;;;14.64;100.00
4586;BME280;2305;50.118;8.952;2023-04-23T00:16:57;99840.47;;;14.59;100.00
4586;BME280;2305;50.118;8.952;2023-04-23T00:19:28;99832.84;;;14.64;100.00
4586;BME280;2305;50.118;8.952;2023-04-23T00:21:56;99841.63;;;14.56;100.00
4586;BME280;2305;50.118;8.952;2023-04-23T00:24:25;99836.16;;;14.58;100.00
4586;BME280;2305;50.118;8.952;2023-04-23T00:26:53;99842.09;;;14.52;100.00
4586;BME280;2305;50.118;8.952;2023-04-23T00:29:21;99833.84;;;14.55;100.00
4586;BME280;2305;50.118;8.952;2023-04-23T00:31:49;99825.03;;;14.46;100.00
4586;BME280;2305;50.118;8.952;2023-04-23T00:34:20;99830.69;;;14.51;100.00
4586;BME280;2305;50.118;8.952;2023-04-23T00:36:50;99832.84;;;14.56;100.00
4586;BME280;2305;50.118;8.952;2023-04-23T00:39:18;99838.63;;;14.51;100.00
4586;BME280;2305;50.118;8.952;2023-04-23T00:41:47;99836.28;;;14.48;100.00
4586;BME280;2305;50.118;8.952;2023-04-23T00:44:15;99837.63;;;14.44;100.00
4586;BME280;2305;50.118;8.952;2023-04-23T00:46:44;99841.91;;;14.37;100.00
4586;BME280;2305;50.118;8.952;2023-04-23T00:49:13;99839.59;;;14.42;100.00
4586;BME280;2305;50.118;8.952;2023-04-23T00:51:41;99844.72;;;14.44;100.00
4586;BME280;2305;50.118;8.952;2023-04-23T00:54:11;99838.09;;;14.40;100.00
4586;BME280;2305;50.118;8.952;2023-04-23T00:56:41;99835.44;;;14.40;100.00
4586;BME280;2305;50.118;8.952;2023-04-23T00:59:12;99831.81;;;14.41;100.00
4586;BME280;2305;50.118;8.952;2023-04-23T01:01:42;99832.47;;;14.43;100.00
4586;BME280;2305;50.118;8.952;2023-04-23T01:04:13;99825.34;;;14.43;100.00
4586;BME280;2305;50.118;8.952;2023-04-23T01:06:43;99835.78;;;14.45;100.00
4586;BME280;2305;50.118;8.952;2023-04-23T01:09:17;99834.47;;;14.49;100.00
4586;BME280;2305;50.118;8.952;2023-04-23T01:11:46;99839.41;;;14.36;100.00
4586;BME280;2305;50.118;8.952;2023-04-23T01:14:14;99836.59;;;14.37;100.00
4586;BME280;2305;50.118;8.952;2023-04-23T01:16:44;99834.75;;;14.38;100.00
4586;BME280;2305;50.118;8.952;2023-04-23T01:19:13;99836.72;;;14.28;100.00
4586;BME280;2305;50.118;8.952;2023-04-23T01:21:42;99838.97;;;14.15;100.00
4586;BME280;2305;50.118;8.952;2023-04-23T01:24:11;99841.09;;;14.11;100.00
4586;BME280;2305;50.118;8.952;2023-04-23T01:26:39;99842.22;;;14.09;100.00
4586;BME280;2305;50.118;8.952;2023-04-23T01:29:07;99838.69;;;14.18;100.00
4586;BME280;2305;50.118;8.952;2023-04-23T01:31:37;99845.75;;;14.17;100.00
4586;BME280;2305;50.118;8.952;2023-04-23T01:34:07;99847.16;;;14.21;100.00
4586;BME280;2305;50.118;8.952;2023-04-23T01:36:36;99847.00;;;14.31;100.00
4586;BME280;2305;50.118;8.952;2023-04-23T01:39:04;99846.19;;;14.30;100.00
4586;BME280;2305;50.118;8.952;2023-04-23T01:41:34;99852.59;;;14.20;100.00
4586;BME280;2305;50.118;8.952;2023-04-23T01:44:02;99843.09;;;14.09;100.00
4586;BME280;2305;50.118;8.952;2023-04-23T01:46:36;99855.81;;;14.06;100.00
4586;BME280;2305;50.118;8.952;2023-04-23T01:49:04;99850.22;;;14.17;100.00
4586;BME280;2305;50.118;8.952;2023-04-23T01:51:32;99851.06;;;14.17;100.00
4586;BME280;2305;50.118;8.952;2023-04-23T01:54:01;99858.41;;;14.23;100.00
4586;BME280;2305;50.118;8.952;2023-04-23T01:56:29;99852.19;;;14.15;100.00
4586;BME280;2305;50.118;8.952;2023-04-23T01:59:00;99851.06;;;14.17;100.00
4586;BME280;2305;50.118;8.952;2023-04-23T02:01:40;99848.53;;;14.08;100.00
4586;BME280;2305;50.118;8.952;2023-04-23T02:04:10;99858.28;;;13.99;100.00
4586;BME280;2305;50.118;8.952;2023-04-23T02:06:41;99862.91;;;14.05;100.00
4586;BME280;2305;50.118;8.952;2023-04-23T02:09:10;99866.22;;;13.99;100.00
4586;BME280;2305;50.118;8.952;2023-04-23T02:11:38;99866.75;;;14.03;100.00
4586;BME280;2305;50.118;8.952;2023-04-23T02:14:08;99869.75;;;14.16;100.00
4586;BME280;2305;50.118;8.952;2023-04-23T02:16:39;99875.91;;;14.16;100.00
4586;BME280;2305;50.118;8.952;2023-04-23T02:19:07;99871.91;;;14.12;100.00
4586;BME280;2305;50.118;8.952;2023-04-23T02:21:35;99874.16;;;13.99;100.00
4586;BME280;2305;50.118;8.952;2023-04-23T02:24:04;99876.53;;;14.10;100.00
4586;BME280;2305;50.118;8.952;2023-04-23T02:26:34;99867.59;;;14.11;100.00
4586;BME280;2305;50.118;8.952;2023-04-23T02:29:05;99865.19;;;14.18;100.00
4586;BME280;2305;50.118;8.952;2023-04-23T02:31:35;99867.84;;;14.18;100.00
4586;BME280;2305;50.118;8.952;2023-04-23T02:34:03;99871.97;;;14.20;100.00
4586;BME280;2305;50.118;8.952;2023-04-23T02:36:31;99874.97;;;14.25;100.00
4586;BME280;2305;50.118;8.952;2023-04-23T02:39:00;99870.81;;;14.23;100.00
4586;BME280;2305;50.118;8.952;2023-04-23T02:41:28;99871.50;;;14.25;100.00
4586;BME280;2305;50.118;8.952;2023-04-23T02:43:57;99870.81;;;14.23;100.00
4586;BME280;2305;50.118;8.952;2023-04-23T02:46:26;99876.81;;;14.25;100.00
4586;BME280;2305;50.118;8.952;2023-04-23T02:48:55;99874.00;;;14.34;100.00
4586;BME280;2305;50.118;8.952;2023-04-23T02:51:28;99875.19;;;14.32;100.00
4586;BME280;2305;50.118;8.952;2023-04-23T02:53:56;99873.50;;;14.31;100.00
4586;BME280;2305;50.118;8.952;2023-04-23T02:56:25;99875.00;;;14.33;100.00
4586;BME280;2305;50.118;8.952;2023-04-23T02:58:53;99879.75;;;14.22;100.00
4586;BME280;2305;50.118;8.952;2023-04-23T03:01:21;99872.47;;;14.24;100.00
4586;BME280;2305;50.118;8.952;2023-04-23T03:03:50;99882.97;;;14.08;100.00
4586;BME280;2305;50.118;8.952;2023-04-23T03:06:20;99883.72;;;14.18;100.00
4586;BME280;2305;50.118;8.952;2023-04-23T03:08:48;99879.69;;;14.14;100.00
4586;BME280;2305;50.118;8.952;2023-04-23T03:11:19;99882.19;;;14.15;100.00
4586;BME280;2305;50.118;8.952;2023-04-23T03:13:48;99880.22;;;14.17;100.00
4586;BME280;2305;50.118;8.952;2023-04-23T03:16:17;99890.69;;;14.19;100.00
4586;BME280;2305;50.118;8.952;2023-04-23T03:18:48;99885.00;;;14.14;100.00
4586;BME280;2305;50.118;8.952;2023-04-23T03:21:16;99880.69;;;14.13;100.00
4586;BME280;2305;50.118;8.952;2023-04-23T03:23:46;99885.13;;;14.12;100.00
4586;BME280;2305;50.118;8.952;2023-04-23T03:26:23;99883.47;;;14.11;100.00
4586;BME280;2305;50.118;8.952;2023-04-23T03:28:53;99877.19;;;14.12;100.00
4586;BME280;2305;50.118;8.952;2023-04-23T03:31:21;99882.97;;;14.08;100.00
4586;BME280;2305;50.118;8.952;2023-04-23T03:33:50;99882.63;;;14.03;100.00
4586;BME280;2305;50.118;8.952;2023-04-23T03:36:25;99880.66;;;14.05;100.00
4586;BME280;2305;50.118;8.952;2023-04-23T03:38:57;99879.66;;;14.06;100.00
4586;BME280;2305;50.118;8.952;2023-04-23T03:41:30;99880.97;;;14.10;100.00
4586;BME280;2305;50.118;8.952;2023-04-23T03:43:58;99882.41;;;13.96;100.00
4586;BME280;2305;50.118;8.952;2023-04-23T03:46:38;99878.44;;;13.92;100.00
4586;BME280;2305;50.118;8.952;2023-04-23T03:49:07;99883.78;;;14.00;100.00
4586;BME280;2305;50.118;8.952;2023-04-23T03:51:35;99880.13;;;14.01;100.00
4586;BME280;2305;50.118;8.952;2023-04-23T03:54:07;99883.88;;;13.91;100.00
4586;BME280;2305;50.118;8.952;2023-04-23T03:57:02;99887.81;;;13.87;100.00
4586;BME280;2305;50.118;8.952;2023-04-23T03:59:35;99884.31;;;13.78;100.00
4586;BME280;2305;50.118;8.952;2023-04-23T04:02:03;99891.94;;;13.81;100.00
4586;BME280;2305;50.118;8.952;2023-04-23T04:04:32;99889.47;;;13.88;100.00
4586;BME280;2305;50.118;8.952;2023-04-23T04:07:02;99890.22;;;13.98;100.00
4586;BME280;2305;50.118;8.952;2023-04-23T04:09:32;99898.25;;;13.88;100.00
4586;BME280;2305;50.118;8.952;2023-04-23T04:12:01;99895.75;;;13.87;100.00
4586;BME280;2305;50.118;8.952;2023-04-23T04:14:30;99892.13;;;13.88;100.00
4586;BME280;2305;50.118;8.952;2023-04-23T04:16:58;99894.44;;;13.83;100.00
4586;BME280;2305;50.118;8.952;2023-04-23T04:19:27;99889.75;;;13.77;100.00
4586;BME280;2305;50.118;8.952;2023-04-23T04:21:57;99892.88;;;13.73;100.00
4586;BME280;2305;50.118;8.952;2023-04-23T04:24:26;99895.53;;;13.73;100.00
4586;BME280;2305;50.118;8.952;2023-04-23T04:26:58;99889.75;;;13.77;100.00
4586;BME280;2305;50.118;8.952;2023-04-23T04:29:27;99882.63;;;13.77;100.00
4586;BME280;2305;50.118;8.952;2023-04-23T04:31:55;99886.13;;;13.78;100.00
4586;BME280;2305;50.118;8.952;2023-04-23T04:34:23;99881.34;;;13.81;100.00
4586;BME280;2305;50.118;8.952;2023-04-23T04:36:52;99884.97;;;13.80;100.00
4586;BME280;2305;50.118;8.952;2023-04-23T04:39:20;99884.13;;;13.80;100.00
4586;BME280;2305;50.118;8.952;2023-04-23T04:41:52;99886.63;;;13.81;100.00
4586;BME280;2305;50.118;8.952;2023-04-23T04:44:24;99889.44;;;13.80;100.00
4586;BME280;2305;50.118;8.952;2023-04-23T04:46:53;99890.13;;;13.82;100.00
4586;BME280;2305;50.118;8.952;2023-04-23T04:49:21;99894.44;;;13.83;100.00
4586;BME280;2305;50.118;8.952;2023-04-23T04:51:51;99899.50;;;13.76;100.00
4586;BME280;2305;50.118;8.952;2023-04-23T04:54:19;99895.81;;;13.69;100.00
4586;BME280;2305;50.118;8.952;2023-04-23T04:56:47;99890.59;;;13.60;100.00
4586;BME280;2305;50.118;8.952;2023-04-23T04:59:15;99896.94;;;13.67;100.00
4586;BME280;2305;50.118;8.952;2023-04-23T05:01:45;99891.88;;;13.73;100.00
4586;BME280;2305;50.118;8.952;2023-04-23T05:04:13;99890.56;;;13.77;100.00
4586;BME280;2305;50.118;8.952;2023-04-23T05:06:42;99899.72;;;13.83;100.00
4586;BME280;2305;50.118;8.952;2023-04-23T05:09:10;99898.72;;;13.84;100.00
4586;BME280;2305;50.118;8.952;2023-04-23T05:11:38;99899.78;;;13.91;100.00
4586;BME280;2305;50.118;8.952;2023-04-23T05:14:06;99896.50;;;13.97;100.00
4586;BME280;2305;50.118;8.952;2023-04-23T05:16:35;99902.84;;;14.04;100.00
4586;BME280;2305;50.118;8.952;2023-04-23T05:19:05;99899.50;;;14.02;100.00
4586;BME280;2305;50.118;8.952;2023-04-23T05:21:34;99899.81;;;13.99;100.00
4586;BME280;2305;50.118;8.952;2023-04-23T05:24:02;99903.59;;;13.96;100.00
4586;BME280;2305;50.118;8.952;2023-04-23T05:26:31;99903.81;;;14.03;100.00
4586;BME280;2305;50.118;8.952;2023-04-23T05:29:02;99904.97;;;14.00;100.00
4586;BME280;2305;50.118;8.952;2023-04-23T05:31:30;99913.38;;;13.96;100.00
4586;BME280;2305;50.118;8.952;2023-04-23T05:33:59;99919.19;;;13.99;100.00
4586;BME280;2305;50.118;8.952;2023-04-23T05:36:30;99923.75;;;13.89;100.00
4586;BME280;2305;50.118;8.952;2023-04-23T05:39:00;99921.78;;;13.91;100.00
4586;BME280;2305;50.118;8.952;2023-04-23T05:41:32;99920.50;;;13.95;100.00
4586;BME280;2305;50.118;8.952;2023-04-23T05:44:02;99921.34;;;13.96;100.00
4586;BME280;2305;50.118;8.952;2023-04-23T05:46:30;99918.31;;;13.91;100.00
4586;BME280;2305;50.118;8.952;2023-04-23T05:48:58;99928.38;;;13.87;100.00
4586;BME280;2305;50.118;8.952;2023-04-23T05:51:27;99924.66;;;13.98;100.00
4586;BME280;2305;50.118;8.952;2023-04-23T05:53:56;99921.94;;;13.90;100.00
4586;BME280;2305;50.118;8.952;2023-04-23T05:56:24;99921.84;;;13.99;100.00
4586;BME280;2305;50.118;8.952;2023-04-23T05:58:53;99922.41;;;14.11;100.00
4586;BME280;2305;50.118;8.952;2023-04-23T06:01:21;99917.66;;;14.48;100.00
4586;BME280;2305;50.118;8.952;2023-04-23T06:03:50;99919.31;;;14.49;100.00
4586;BME280;2305;50.118;8.952;2023-04-23T06:06:19;99930.16;;;14.30;100.00
4586;BME280;2305;50.118;8.952;2023-04-23T06:08:47;99933.09;;;14.19;100.00
4586;BME280;2305;50.118;8.952;2023-04-23T06:11:18;99933.34;;;14.16;100.00
4586;BME280;2305;50.118;8.952;2023-04-23T06:13:46;99925.69;;;14.30;100.00
4586;BME280;2305;50.118;8.952;2023-04-23T06:16:14;99928.84;;;14.34;100.00
4586;BME280;2305;50.118;8.952;2023-04-23T06:18:43;99930.41;;;14.44;100.00
4586;BME280;2305;50.118;8.952;2023-04-23T06:21:13;99924.56;;;14.33;100.00
4586;BME280;2305;50.118;8.952;2023-04-23T06:23:43;99919.53;;;14.30;100.00
4586;BME280;2305;50.118;8.952;2023-04-23T06:26:11;99933.69;;;14.13;100.00
4586;BME280;2305;50.118;8.952;2023-04-23T06:28:42;99920.97;;;13.91;100.00
4586;BME280;2305;50.118;8.952;2023-04-23T06:31:32;99924.84;;;14.04;100.00
4586;BME280;2305;50.118;8.952;2023-04-23T06:34:01;99928.06;;;14.16;100.00
4586;BME280;2305;50.118;8.952;2023-04-23T06:36:29;99929.34;;;14.29;100.00
4586;BME280;2305;50.118;8.952;2023-04-23T06:38:58;99920.53;;;14.29;100.00
4586;BME280;2305;50.118;8.952;2023-04-23T06:41:31;99918.03;;;14.27;100.00
4586;BME280;2305;50.118;8.952;2023-04-23T06:44:10;99916.41;;;14.34;100.00
4586;BME280;2305;50.118;8.952;2023-04-23T06:46:41;99915.78;;;14.40;100.00
4586;BME280;2305;50.118;8.952;2023-04-23T06:49:10;99909.38;;;14.51;100.00
4586;BME280;2305;50.118;8.952;2023-04-23T06:51:38;99901.59;;;14.49;100.00
4586;BME280;2305;50.118;8.952;2023-04-23T06:54:06;99895.19;;;14.68;100.00
4586;BME280;2305;50.118;8.952;2023-04-23T06:56:34;99902.69;;;14.80;100.00
4586;BME280;2305;50.118;8.952;2023-04-23T06:59:02;99914.34;;;15.03;100.00
4586;BME280;2305;50.118;8.952;2023-04-23T07:01:33;99916.84;;;15.05;100.00
4586;BME280;2305;50.118;8.952;2023-04-23T07:04:01;99914.16;;;14.97;100.00
4586;BME280;2305;50.118;8.952;2023-04-23T07:06:29;99932.25;;;15.09;100.00
4586;BME280;2305;50.118;8.952;2023-04-23T07:08:59;99918.19;;;15.17;100.00
4586;BME280;2305;50.118;8.952;2023-04-23T07:11:27;99910.19;;;15.01;100.00
4586;BME280;2305;50.118;8.952;2023-04-23T07:13:59;99905.22;;;15.06;100.00
4586;BME280;2305;50.118;8.952;2023-04-23T07:16:27;99905.00;;;14.91;100.00
4586;BME280;2305;50.118;8.952;2023-04-23T07:19:00;99898.56;;;15.02;100.00
4586;BME280;2305;50.118;8.952;2023-04-23T07:21:28;99889.66;;;15.11;100.00
4586;BME280;2305;50.118;8.952;2023-04-23T07:23:57;99887.38;;;15.32;100.00
4586;BME280;2305;50.118;8.952;2023-04-23T07:26:26;99899.59;;;15.17;100.00
4586;BME280;2305;50.118;8.952;2023-04-23T07:28:55;99888.66;;;15.12;100.00
4586;BME280;2305;50.118;8.952;2023-04-23T07:31:23;99889.97;;;15.16;100.00
4586;BME280;2305;50.118;8.952;2023-04-23T07:33:51;99885.34;;;15.18;100.00
4586;BME280;2305;50.118;8.952;2023-04-23T07:36:21;99874.22;;;15.22;100.00
4586;BME280;2305;50.118;8.952;2023-04-23T07:38:49;99877.41;;;15.42;100.00
4586;BME280;2305;50.118;8.952;2023-04-23T07:41:17;99883.56;;;15.42;100.00
4586;BME280;2305;50.118;8.952;2023-04-23T07:43:45;99878.41;;;15.49;100.00
4586;BME280;2305;50.118;8.952;2023-04-23T07:46:16;99878.56;;;15.71;100.00
4586;BME280;2305;50.118;8.952;2023-04-23T07:48:44;99876.69;;;15.88;100.00
4586;BME280;2305;50.118;8.952;2023-04-23T07:51:12;99886.00;;;15.84;100.00
4586;BME280;2305;50.118;8.952;2023-04-23T07:53:41;99881.63;;;15.99;100.00
4586;BME280;2305;50.118;8.952;2023-04-23T07:56:09;99880.31;;;16.03;100.00
4586;BME280;2305;50.118;8.952;2023-04-23T07:58:38;99882.47;;;16.07;100.00
4586;BME280;2305;50.118;8.952;2023-04-23T08:01:09;99882.47;;;15.99;100.00
4586;BME280;2305;50.118;8.952;2023-04-23T08:03:39;99872.81;;;16.06;100.00
4586;BME280;2305;50.118;8.952;2023-04-23T08:06:09;99876.28;;;16.15;100.00
4586;BME280;2305;50.118;8.952;2023-04-23T08:08:41;99876.22;;;16.23;100.00
4586;BME280;2305;50.118;8.952;2023-04-23T08:11:10;99870.59;;;16.26;100.00
4586;BME280;2305;50.118;8.952;2023-04-23T08:13:38;99867.75;;;16.35;100.00
4586;BME280;2305;50.118;8.952;2023-04-23T08:16:06;99864.88;;;16.37;100.00
4586;BME280;2305;50.118;8.952;2023-04-23T08:18:35;99859.91;;;16.42;100.00
4586;BME280;2305;50.118;8.952;2023-04-23T08:21:03;99861.41;;;16.44;100.00
4586;BME280;2305;50.118;8.952;2023-04-23T08:23:31;99859.72;;;16.51;100.00
4586;BME280;2305;50.118;8.952;2023-04-23T08:26:01;99855.72;;;16.47;100.00
4586;BME280;2305;50.118;8.952;2023-04-23T08:28:29;99860.06;;;16.48;100.00
4586;BME280;2305;50.118;8.952;2023-04-23T08:31:00;99857.53;;;16.55;100.00
4586;BME280;2305;50.118;8.952;2023-04-23T08:33:45;99853.97;;;16.70;100.00
4586;BME280;2305;50.118;8.952;2023-04-23T08:36:13;99851.16;;;16.64;100.00
4586;BME280;2305;50.118;8.952;2023-04-23T08:38:41;99848.91;;;16.53;100.00
4586;BME280;2305;50.118;8.952;2023-04-23T08:41:13;99847.41;;;16.50;100.00
4586;BME280;2305;50.118;8.952;2023-04-23T08:43:46;99844.00;;;16.26;100.00
4586;BME280;2305;50.118;8.952;2023-04-23T08:46:20;99846.31;;;16.29;100.00
4586;BME280;2305;50.118;8.952;2023-04-23T08:48:51;99840.81;;;16.38;100.00
4586;BME280;2305;50.118;8.952;2023-04-23T08:51:20;99843.44;;;16.46;100.00
4586;BME280;2305;50.118;8.952;2023-04-23T08:53:58;99850.56;;;16.54;100.00
4586;BME280;2305;50.118;8.952;2023-04-23T08:56:31;99843.88;;;16.58;100.00
4586;BME280;2305;50.118;8.952;2023-04-23T08:59:02;99838.06;;;16.62;100.00
4586;BME280;2305;50.118;8.952;2023-04-23T09:01:32;99846.78;;;16.71;100.00
4586;BME280;2305;50.118;8.952;2023-04-23T09:04:01;99838.19;;;16.91;100.00
4586;BME280;2305;50.118;8.952;2023-04-23T09:06:30;99828.28;;;17.22;100.00
4586;BME280;2305;50.118;8.952;2023-04-23T09:08:59;99831.91;;;17.29;100.00
4586;BME280;2305;50.118;8.952;2023-04-23T09:11:28;99828.69;;;17.34;100.00
4586;BME280;2305;50.118;8.952;2023-04-23T09:13:59;99822.13;;;17.44;100.00
4586;BME280;2305;50.118;8.952;2023-04-23T09:16:31;99826.28;;;17.61;100.00
4586;BME280;2305;50.118;8.952;2023-04-23T09:19:01;99832.63;;;17.60;100.00
4586;BME280;2305;50.118;8.952;2023-04-23T09:21:30;99832.03;;;17.73;100.00
4586;BME280;2305;50.118;8.952;2023-04-23T09:24:03;99825.88;;;17.87;100.00
4586;BME280;2305;50.118;8.952;2023-04-23T09:26:31;99810.59;;;17.95;100.00
4586;BME280;2305;50.118;8.952;2023-04-23T09:29:01;99816.22;;;18.00;100.00
4586;BME280;2305;50.118;8.952;2023-04-23T09:31:29;99817.03;;;18.30;100.00
4586;BME280;2305;50.118;8.952;2023-04-23T09:33:57;99814.75;;;18.12;100.00
4586;BME280;2305;50.118;8.952;2023-04-23T09:36:26;99811.69;;;18.30;100.00
4586;BME280;2305;50.118;8.952;2023-04-23T09:38:55;99807.81;;;18.47;100.00
4586;BME280;2305;50.118;8.952;2023-04-23T09:41:24;99808.47;;;18.20;100.00
4586;BME280;2305;50.118;8.952;2023-04-23T09:43:53;99803.03;;;18.28;100.00
4586;BME280;2305;50.118;8.952;2023-04-23T09:46:33;99802.28;;;18.48;100.00
4586;BME280;2305;50.118;8.952;2023-04-23T09:49:05;99793.34;;;18.56;100.00
4586;BME280;2305;50.118;8.952;2023-04-23T09:51:38;99798.34;;;18.15;100.00
4586;BME280;2305;50.118;8.952;2023-04-23T09:54:10;99792.56;;;18.26;100.00
4586;BME280;2305;50.118;8.952;2023-04-23T09:56:48;99796.34;;;18.32;100.00
4586;BME280;2305;50.118;8.952;2023-04-23T09:59:22;99790.59;;;18.49;100.00
4586;BME280;2305;50.118;8.952;2023-04-23T10:02:13;99786.31;;;18.34;100.00
4586;BME280;2305;50.118;8.952;2023-04-23T10:04:41;99778.97;;;18.57;100.00
4586;BME280;2305;50.118;8.952;2023-04-23T10:07:12;99767.06;;;18.38;100.00
4586;BME280;2305;50.118;8.952;2023-04-23T10:09:46;99773.31;;;18.45;100.00
4586;BME280;2305;50.118;8.952;2023-04-23T10:12:15;99775.03;;;18.53;100.00
4586;BME280;2305;50.118;8.952;2023-04-23T10:15:09;99762.28;;;18.69;100.00
4586;BME280;2305;50.118;8.952;2023-04-23T10:17:40;99760.16;;;18.65;100.00
4586;BME280;2305;50.118;8.952;2023-04-23T10:20:10;99745.69;;;18.94;100.00
4586;BME280;2305;50.118;8.952;2023-04-23T10:22:39;99746.94;;;19.19;100.00
4586;BME280;2305;50.118;8.952;2023-04-23T10:25:11;99747.41;;;19.57;100.00
4586;BME280;2305;50.118;8.952;2023-04-23T10:27:48;99742.75;;;19.65;100.00
4586;BME280;2305;50.118;8.952;2023-04-23T10:30:23;99754.16;;;19.80;100.00
4586;BME280;2305;50.118;8.952;2023-04-23T10:32:54;99752.69;;;19.78;100.00
4586;BME280;2305;50.118;8.952;2023-04-23T10:35:28;99742.78;;;19.72;100.00
4586;BME280;2305;50.118;8.952;2023-04-23T10:38:00;99748.00;;;19.86;100.00
4586;BME280;2305;50.118;8.952;2023-04-23T10:40:31;99745.69;;;20.11;100.00
4586;BME280;2305;50.118;8.952;2023-04-23T10:43:01;99739.84;;;19.60;100.00
4586;BME280;2305;50.118;8.952;2023-04-23T10:45:31;99734.56;;;19.18;100.00
4586;BME280;2305;50.118;8.952;2023-04-23T10:48:04;99738.34;;;19.03;100.00
4586;BME280;2305;50.118;8.952;2023-04-23T10:50:34;99737.84;;;19.14;100.00
4586;BME280;2305;50.118;8.952;2023-04-23T10:53:19;99735.03;;;19.22;100.00
4586;BME280;2305;50.118;8.952;2023-04-23T10:55:48;99731.63;;;19.07;100.00
4586;BME280;2305;50.118;8.952;2023-04-23T10:58:17;99735.66;;;19.24;100.00
4586;BME280;2305;50.118;8.952;2023-04-23T11:00:49;99735.72;;;19.30;100.00
4586;BME280;2305;50.118;8.952;2023-04-23T11:03:41;99739.13;;;19.18;100.00
4586;BME280;2305;50.118;8.952;2023-04-23T11:06:13;99735.41;;;19.19;100.00
4586;BME280;2305;50.118;8.952;2023-04-23T11:08:52;99732.28;;;19.36;100.00
4586;BME280;2305;50.118;8.952;2023-04-23T11:11:38;99734.25;;;18.80;100.00
4586;BME280;2305;50.118;8.952;2023-04-23T11:14:10;99725.88;;;18.62;100.00
4586;BME280;2305;50.118;8.952;2023-04-23T11:16:40;99717.34;;;18.52;100.00
4586;BME280;2305;50.118;8.952;2023-04-23T11:19:11;99716.56;;;18.58;100.00
4586;BME280;2305;50.118;8.952;2023-04-23T11:22:02;99717.84;;;18.83;100.00
4586;BME280;2305;50.118;8.952;2023-04-23T11:24:36;99713.25;;;18.97;100.00
4586;BME280;2305;50.118;8.952;2023-04-23T11:27:10;99712.94;;;19.13;100.00
4586;BME280;2305;50.118;8.952;2023-04-23T11:29:39;99702.75;;;19.51;100.00
4586;BME280;2305;50.118;8.952;2023-04-23T11:32:11;99693.06;;;19.84;100.00
4586;BME280;2305;50.118;8.952;2023-04-23T11:34:42;99683.97;;;20.19;96.68
4586;BME280;2305;50.118;8.952;2023-04-23T11:37:14;99691.53;;;20.09;100.00
4586;BME280;2305;50.118;8.952;2023-04-23T11:39:44;99679.50;;;20.39;99.47
4586;BME280;2305;50.118;8.952;2023-04-23T11:42:16;99675.81;;;20.85;100.00
4586;BME280;2305;50.118;8.952;2023-04-23T11:44:51;99673.56;;;21.15;97.10
4586;BME280;2305;50.118;8.952;2023-04-23T11:47:24;99669.41;;;21.25;95.88
4586;BME280;2305;50.118;8.952;2023-04-23T11:49:55;99674.97;;;21.43;96.86
4586;BME280;2305;50.118;8.952;2023-04-23T11:52:22;99667.78;;;20.98;93.51
4586;BME280;2305;50.118;8.952;2023-04-23T11:54:52;99659.16;;;20.90;91.76
4586;BME280;2305;50.118;8.952;2023-04-23T11:57:20;99664.09;;;20.86;99.25
4586;BME280;2305;50.118;8.952;2023-04-23T11:59:52;99650.47;;;20.81;98.67
4586;BME280;2305;50.118;8.952;2023-04-23T12:02:23;99652.13;;;20.82;100.00
4586;BME280;2305;50.118;8.952;2023-04-23T12:04:51;99648.00;;;20.73;100.00
4586;BME280;2305;50.118;8.952;2023-04-23T12:07:31;99639.97;;;20.60;100.00
4586;BME280;2305;50.118;8.952;2023-04-23T12:10:01;99643.03;;;20.51;99.86
4586;BME280;2305;50.118;8.952;2023-04-23T12:12:33;99634.41;;;20.42;87.73
4586;BME280;2305;50.118;8.952;2023-04-23T12:15:07;99632.13;;;20.59;87.25
4586;BME280;2305;50.118;8.952;2023-04-23T12:17:36;99640.56;;;20.62;82.84
4586;BME280;2305;50.118;8.952;2023-04-23T12:20:05;99638.13;;;20.87;72.40
4586;BME280;2305;50.118;8.952;2023-04-23T12:22:39;99634.63;;;20.60;77.75
4586;BME280;2305;50.118;8.952;2023-04-23T12:25:07;99635.25;;;20.88;79.25
4586;BME280;2305;50.118;8.952;2023-04-23T12:27:38;99624.72;;;21.00;78.66
4586;BME280;2305;50.118;8.952;2023-04-23T12:30:09;99622.81;;;21.33;76.74
4586;BME280;2305;50.118;8.952;2023-04-23T12:32:37;99622.88;;;20.74;72.72
4586;BME280;2305;50.118;8.952;2023-04-23T12:35:07;99625.94;;;21.10;74.85
4586;BME280;2305;50.118;8.952;2023-04-23T12:37:38;99621.59;;;21.22;76.88
4586;BME280;2305;50.118;8.952;2023-04-23T12:40:07;99637.00;;;21.53;77.01
4586;BME280;2305;50.118;8.952;2023-04-23T12:42:38;99623.22;;;21.36;74.89
4586;BME280;2305;50.118;8.952;2023-04-23T12:45:08;99625.47;;;21.39;76.17
4586;BME280;2305;50.118;8.952;2023-04-23T12:47:37;99620.78;;;21.28;72.73
4586;BME280;2305;50.118;8.952;2023-04-23T12:50:12;99608.34;;;21.40;77.60
4586;BME280;2305;50.118;8.952;2023-04-23T12:52:42;99602.97;;;21.40;75.81
4586;BME280;2305;50.118;8.952;2023-04-23T12:55:12;99582.56;;;21.39;79.00
4586;BME280;2305;50.118;8.952;2023-04-23T12:57:40;99586.06;;;21.46;79.98
4586;BME280;2305;50.118;8.952;2023-04-23T13:00:09;99573.56;;;21.21;64.42
4586;BME280;2305;50.118;8.952;2023-04-23T13:02:37;99569.31;;;21.51;79.28
4586;BME280;2305;50.118;8.952;2023-04-23T13:05:06;99565.06;;;21.87;73.26
4586;BME280;2305;50.118;8.952;2023-04-23T13:07:35;99561.72;;;21.92;61.14
4586;BME280;2305;50.118;8.952;2023-04-23T13:10:06;99554.66;;;22.28;73.88
4586;BME280;2305;50.118;8.952;2023-04-23T13:12:35;99554.28;;;22.74;73.78
4586;BME280;2305;50.118;8.952;2023-04-23T13:15:04;99546.84;;;22.51;64.36
4586;BME280;2305;50.118;8.952;2023-04-23T13:17:32;99533.22;;;22.22;57.04
4586;BME280;2305;50.118;8.952;2023-04-23T13:20:00;99533.47;;;22.20;55.21
4586;BME280;2305;50.118;8.952;2023-04-23T13:22:28;99528.03;;;22.51;66.06
4586;BME280;2305;50.118;8.952;2023-04-23T13:24:57;99520.09;;;22.63;69.47
4586;BME280;2305;50.118;8.952;2023-04-23T13:27:30;99506.69;;;22.81;63.53
4586;BME280;2305;50.118;8.952;2023-04-23T13:29:58;99499.88;;;23.32;61.90